Time;durP1;ratioP1;P1;durP2;ratioP2;P2;SDS_P1;SDS_P2;PMS_P1;PMS_P2;Temp;Humidity;BMP_temperature;BMP_pressure;BME280_temperature;BME280_humidity;BME280_pressure;Samples;Min_cycle;Max_cycle;Signal;HPM_P1;HPM_P2
2021/10/09 00:01:36;;;;;;;;;;;20.70;61.90;;;;;;5051523;28;1910;-70
2021/10/09 00:04:02;;;;;;;;;;;20.80;62.00;;;;;;5053371;28;1298;-69
2021/10/09 00:06:27;;;;;;;;;;;20.70;62.00;;;;;;5055924;28;1187;-70
2021/10/09 00:08:53;;;;;;;;;;;20.70;62.00;;;;;;5056119;28;1222;-70
2021/10/09 00:11:21;;;;;;;;;;;20.70;62.00;;;;;;5055232;28;1094;-69
2021/10/09 00:13:46;;;;;;;;;;;20.70;62.10;;;;;;5054837;28;1091;-69
2021/10/09 00:16:12;;;;;;;;;;;20.70;62.10;;;;;;5055827;28;1369;-69
2021/10/09 00:18:37;;;;;;;;;;;20.70;62.20;;;;;;5055706;28;1370;-69
2021/10/09 00:21:03;;;;;;;;;;;20.70;62.20;;;;;;5055098;28;1937;-69
2021/10/09 00:23:28;;;;;;;;;;;20.70;62.20;;;;;;5055856;28;1022;-69
2021/10/09 00:25:55;;;;;;;;;;;20.70;62.20;;;;;;5055964;28;1149;-69
2021/10/09 00:28:21;;;;;;;;;;;20.70;62.30;;;;;;5041401;28;1122;-69
2021/10/09 00:30:46;;;;;;;;;;;20.70;62.30;;;;;;5034944;28;1231;-69
2021/10/09 00:33:11;;;;;;;;;;;20.70;62.30;;;;;;5035808;28;1138;-69
2021/10/09 00:35:37;;;;;;;;;;;20.70;62.40;;;;;;5035826;28;1107;-69
2021/10/09 00:38:02;;;;;;;;;;;20.70;62.40;;;;;;5035918;28;1650;-69
2021/10/09 00:40:28;;;;;;;;;;;20.70;62.40;;;;;;5034738;28;1905;-69
2021/10/09 00:42:53;;;;;;;;;;;20.70;62.40;;;;;;5035675;28;1059;-69
2021/10/09 00:45:19;;;;;;;;;;;20.70;62.50;;;;;;5035621;28;1143;-70
2021/10/09 00:47:44;;;;;;;;;;;20.70;62.50;;;;;;5037237;28;1177;-69
2021/10/09 00:50:10;;;;;;;;;;;20.70;62.50;;;;;;5054717;28;1283;-69
2021/10/09 00:52:35;;;;;;;;;;;20.70;62.50;;;;;;5055097;28;1130;-69
2021/10/09 00:55:04;;;;;;;;;;;20.70;62.60;;;;;;5054110;28;1110;-69
2021/10/09 00:57:29;;;;;;;;;;;20.70;62.70;;;;;;5054055;28;1146;-69
2021/10/09 00:59:55;;;;;;;;;;;20.70;62.70;;;;;;5054298;28;1970;-69
2021/10/09 01:02:21;;;;;;;;;;;20.60;62.70;;;;;;5054123;28;1095;-69
2021/10/09 01:04:46;;;;;;;;;;;20.70;62.70;;;;;;5054616;28;1059;-69
2021/10/09 01:07:12;;;;;;;;;;;20.60;62.70;;;;;;5055144;28;1074;-69
2021/10/09 01:09:37;;;;;;;;;;;20.70;62.80;;;;;;5055502;28;1248;-69
2021/10/09 01:12:03;;;;;;;;;;;20.60;62.70;;;;;;5054083;28;1387;-70
2021/10/09 01:14:28;;;;;;;;;;;20.60;62.80;;;;;;5054670;28;1465;-69
2021/10/09 01:16:54;;;;;;;;;;;20.60;62.80;;;;;;5054872;28;1067;-69
2021/10/09 01:19:19;;;;;;;;;;;20.60;62.80;;;;;;5054744;28;1287;-69
2021/10/09 01:21:45;;;;;;;;;;;20.60;62.80;;;;;;5054156;28;1890;-69
2021/10/09 01:24:11;;;;;;;;;;;20.60;62.90;;;;;;5054822;28;1161;-69
2021/10/09 01:26:36;;;;;;;;;;;20.60;62.90;;;;;;5054475;28;1063;-69
2021/10/09 01:29:02;;;;;;;;;;;20.60;62.90;;;;;;5033711;28;1363;-69
2021/10/09 01:31:28;;;;;;;;;;;20.60;62.90;;;;;;5033992;28;1067;-69
2021/10/09 01:33:53;;;;;;;;;;;20.60;62.90;;;;;;5034354;28;1126;-69
2021/10/09 01:36:20;;;;;;;;;;;20.60;62.90;;;;;;5034300;28;1106;-69
2021/10/09 01:38:49;;;;;;;;;;;20.60;63.00;;;;;;5034534;28;1293;-69
2021/10/09 01:41:14;;;;;;;;;;;20.60;63.00;;;;;;5033844;28;1906;-69
2021/10/09 01:43:40;;;;;;;;;;;20.60;63.10;;;;;;5034801;28;1142;-69
2021/10/09 01:46:05;;;;;;;;;;;20.60;63.10;;;;;;5034190;28;1058;-69
2021/10/09 01:48:31;;;;;;;;;;;20.60;63.10;;;;;;5043090;28;1393;-69
2021/10/09 01:50:57;;;;;;;;;;;20.60;63.10;;;;;;5052066;28;1365;-69
2021/10/09 01:53:22;;;;;;;;;;;20.60;63.10;;;;;;5054457;28;1031;-69
2021/10/09 01:55:47;;;;;;;;;;;20.60;63.10;;;;;;5054114;28;1047;-69
2021/10/09 01:58:13;;;;;;;;;;;20.60;63.10;;;;;;5054343;28;1075;-69
2021/10/09 02:00:38;;;;;;;;;;;20.60;63.20;;;;;;5052966;28;1905;-69
2021/10/09 02:03:05;;;;;;;;;;;20.60;63.20;;;;;;5053992;28;1303;-69
2021/10/09 02:05:31;;;;;;;;;;;20.60;63.20;;;;;;5054294;28;1288;-69
2021/10/09 02:07:56;;;;;;;;;;;20.60;63.20;;;;;;5052677;28;1079;-69
2021/10/09 02:10:22;;;;;;;;;;;20.60;63.20;;;;;;5052018;28;1195;-69
2021/10/09 02:12:48;;;;;;;;;;;20.60;63.30;;;;;;5053560;28;1291;-69
2021/10/09 02:15:17;;;;;;;;;;;20.60;63.20;;;;;;5053912;28;1368;-69
2021/10/09 02:25:46;;;;;;;;;;;20.60;63.40;;;;;;5053817;28;1055;-69
2021/10/09 02:28:15;;;;;;;;;;;20.60;63.40;;;;;;5039853;28;1137;-69
2021/10/09 02:30:40;;;;;;;;;;;20.60;63.40;;;;;;5032634;28;1373;-69
2021/10/09 02:33:06;;;;;;;;;;;20.60;63.40;;;;;;5033412;28;1400;-69
2021/10/09 02:35:32;;;;;;;;;;;20.60;63.50;;;;;;5033158;28;1123;-69
2021/10/09 02:37:57;;;;;;;;;;;20.60;63.50;;;;;;5033652;28;1091;-69
2021/10/09 02:40:23;;;;;;;;;;;20.60;63.50;;;;;;5048224;28;1969;-69
2021/10/09 02:42:48;;;;;;;;;;;20.60;63.50;;;;;;5033003;28;1439;-69
2021/10/09 02:45:13;;;;;;;;;;;20.60;63.50;;;;;;5048449;28;1158;-69
2021/10/09 02:47:39;;;;;;;;;;;20.60;63.50;;;;;;5034738;28;1161;-69
2021/10/09 02:50:07;;;;;;;;;;;20.60;63.50;;;;;;5052765;28;1366;-69
2021/10/09 02:52:34;;;;;;;;;;;20.60;63.60;;;;;;5053453;28;1295;-69
2021/10/09 02:54:59;;;;;;;;;;;20.60;63.60;;;;;;5052816;28;1120;-69
2021/10/09 02:57:25;;;;;;;;;;;20.60;63.60;;;;;;5052404;28;1300;-69
2021/10/09 02:59:50;;;;;;;;;;;20.60;63.60;;;;;;5052484;28;1273;-69
2021/10/09 03:02:16;;;;;;;;;;;20.60;63.70;;;;;;5052800;28;1906;-69
2021/10/09 03:04:41;;;;;;;;;;;20.60;63.70;;;;;;5051401;28;1427;-69
2021/10/09 03:07:07;;;;;;;;;;;20.60;63.60;;;;;;5052622;28;1315;-69
2021/10/09 03:09:32;;;;;;;;;;;20.60;63.70;;;;;;5052546;28;1342;-69
2021/10/09 03:11:58;;;;;;;;;;;20.50;63.60;;;;;;5052034;28;1062;-69
2021/10/09 03:14:24;;;;;;;;;;;20.50;63.60;;;;;;5052552;28;1391;-69
2021/10/09 03:16:50;;;;;;;;;;;20.60;63.70;;;;;;5052873;28;1388;-69
2021/10/09 03:19:16;;;;;;;;;;;20.50;63.60;;;;;;5052172;28;1262;-69
2021/10/09 03:21:41;;;;;;;;;;;20.50;63.70;;;;;;5051956;28;1898;-69
2021/10/09 03:24:07;;;;;;;;;;;20.50;63.70;;;;;;5052509;28;1289;-69
2021/10/09 03:26:32;;;;;;;;;;;20.50;63.70;;;;;;5051302;28;1289;-69
2021/10/09 03:28:58;;;;;;;;;;;20.60;63.80;;;;;;5033346;28;1302;-69
2021/10/09 03:31:23;;;;;;;;;;;20.50;63.80;;;;;;5031540;28;1499;-69
2021/10/09 03:33:48;;;;;;;;;;;20.50;63.80;;;;;;5032459;28;1330;-69
2021/10/09 03:36:14;;;;;;;;;;;20.50;63.80;;;;;;5032415;28;1408;-69
2021/10/09 03:38:40;;;;;;;;;;;20.50;64.60;;;;;;5032227;28;1358;-69
2021/10/09 03:41:09;;;;;;;;;;;20.50;63.90;;;;;;5031265;28;1902;-70
2021/10/09 03:43:35;;;;;;;;;;;20.50;63.80;;;;;;5032556;28;1076;-69
2021/10/09 03:49:07;;;;;;;;;;;20.50;63.90;;;;;;4989656;28;1264;-69
2021/10/09 03:54:17;;;;;;;;;;;20.50;63.90;;;;;;5052404;28;1363;-69
2021/10/09 03:56:42;;;;;;;;;;;20.50;63.90;;;;;;5052131;28;1102;-70
2021/10/09 03:59:09;;;;;;;;;;;20.50;64.00;;;;;;5051951;28;1365;-69
2021/10/09 04:01:34;;;;;;;;;;;20.50;64.00;;;;;;5051575;28;1965;-69
2021/10/09 04:04:00;;;;;;;;;;;20.50;64.00;;;;;;5051753;28;1070;-69
2021/10/09 04:06:26;;;;;;;;;;;20.50;64.00;;;;;;5051866;28;1119;-69
2021/10/09 04:08:51;;;;;;;;;;;20.50;64.00;;;;;;5051998;28;1314;-69
2021/10/09 04:11:16;;;;;;;;;;;20.50;64.00;;;;;;5052282;28;1142;-69
2021/10/09 04:13:42;;;;;;;;;;;20.50;64.10;;;;;;5052144;28;1262;-69
2021/10/09 04:16:07;;;;;;;;;;;20.50;64.10;;;;;;5051918;28;1078;-69
2021/10/09 04:18:33;;;;;;;;;;;20.50;64.00;;;;;;5051883;28;1287;-69
2021/10/09 04:20:58;;;;;;;;;;;20.50;64.10;;;;;;5051537;28;1910;-69
2021/10/09 04:23:24;;;;;;;;;;;20.50;64.10;;;;;;5051411;28;1047;-69
2021/10/09 04:25:49;;;;;;;;;;;20.50;64.10;;;;;;5051788;28;1379;-69
2021/10/09 04:28:14;;;;;;;;;;;20.50;64.10;;;;;;5037578;28;1194;-69
2021/10/09 04:30:40;;;;;;;;;;;20.50;64.20;;;;;;5031272;28;1299;-68
2021/10/09 04:33:05;;;;;;;;;;;20.50;64.20;;;;;;5032215;28;1119;-69
2021/10/09 04:35:31;;;;;;;;;;;20.50;64.10;;;;;;5031874;28;1171;-69
2021/10/09 04:37:56;;;;;;;;;;;20.50;64.20;;;;;;5031868;28;1385;-69
2021/10/09 04:40:22;;;;;;;;;;;20.50;64.20;;;;;;5031514;28;1977;-69
2021/10/09 04:42:47;;;;;;;;;;;20.50;64.20;;;;;;5032283;28;1345;-69
2021/10/09 04:45:13;;;;;;;;;;;20.50;64.10;;;;;;5025074;28;2111;-69
2021/10/09 04:47:38;;;;;;;;;;;20.50;64.10;;;;;;5036934;28;1269;-69
2021/10/09 04:50:04;;;;;;;;;;;20.60;64.10;;;;;;5020435;28;1391;-70
2021/10/09 04:52:29;;;;;;;;;;;20.60;64.00;;;;;;5054999;28;1254;-70
2021/10/09 04:54:55;;;;;;;;;;;20.60;63.90;;;;;;5053893;28;1375;-69
2021/10/09 04:57:20;;;;;;;;;;;20.60;63.80;;;;;;5055323;28;1344;-70
2021/10/09 04:59:45;;;;;;;;;;;20.60;63.70;;;;;;5055546;28;1276;-70
2021/10/09 05:02:11;;;;;;;;;;;20.70;63.70;;;;;;5047410;28;1955;-71
2021/10/09 05:04:36;;;;;;;;;;;20.70;63.60;;;;;;5035455;28;1349;-71
2021/10/09 05:07:02;;;;;;;;;;;20.70;63.50;;;;;;5035194;28;1399;-71
2021/10/09 05:09:27;;;;;;;;;;;20.70;63.40;;;;;;5035590;28;1369;-72
2021/10/09 05:11:53;;;;;;;;;;;20.80;63.50;;;;;;5034334;28;1397;-71
2021/10/09 05:14:18;;;;;;;;;;;20.80;63.40;;;;;;5034923;28;1341;-71
2021/10/09 05:16:43;;;;;;;;;;;20.80;63.30;;;;;;5034850;28;1274;-71
2021/10/09 05:19:09;;;;;;;;;;;20.80;63.30;;;;;;5049876;28;1336;-71
2021/10/09 05:21:34;;;;;;;;;;;20.80;63.20;;;;;;5034735;28;1956;-72
2021/10/09 05:24:00;;;;;;;;;;;20.80;63.20;;;;;;5034843;28;1446;-71
2021/10/09 05:26:27;;;;;;;;;;;20.80;63.10;;;;;;5034662;28;1334;-71
2021/10/09 05:28:53;;;;;;;;;;;20.80;63.00;;;;;;5035003;28;1317;-72
2021/10/09 05:31:26;;;;;;;;;;;20.90;63.10;;;;;;5033779;28;1331;-71
2021/10/09 05:33:52;;;;;;;;;;;20.90;63.00;;;;;;5035203;28;1058;-71
2021/10/09 05:36:17;;;;;;;;;;;20.90;63.00;;;;;;5049885;28;1363;-71
2021/10/09 05:38:43;;;;;;;;;;;20.90;63.00;;;;;;5034542;28;1360;-71
2021/10/09 05:41:08;;;;;;;;;;;20.90;62.90;;;;;;5032546;28;1902;-72
2021/10/09 05:43:34;;;;;;;;;;;20.90;62.90;;;;;;5032982;28;1076;-72
2021/10/09 05:45:59;;;;;;;;;;;20.90;62.90;;;;;;5034368;28;1321;-72
2021/10/09 05:48:25;;;;;;;;;;;20.90;62.90;;;;;;5044015;28;1143;-71
2021/10/09 05:51:04;;;;;;;;;;;20.90;62.90;;;;;;5033668;28;1481;-71
2021/10/09 05:58:35;;;;;;;;;;;21.00;62.90;;;;;;5052428;28;1243;-71
2021/10/09 06:01:48;;;;;;;;;;;21.00;62.80;;;;;;5042815;28;1944;-72
2021/10/09 06:26:11;;;;;;;;;;;21.40;57.90;;;;;;5054009;28;1274;-71
2021/10/09 06:49:37;;;;;;;;;;;21.80;57.60;;;;;;5032318;28;1405;-68
2021/10/09 07:00:15;;;;;;;;;;;21.80;58.40;;;;;;5022107;28;1934;-69
2021/10/09 07:02:40;;;;;;;;;;;21.80;58.70;;;;;;5026134;28;1924;-69
2021/10/09 07:05:06;;;;;;;;;;;21.80;58.90;;;;;;5030851;28;1579;-70
2021/10/09 07:07:35;;;;;;;;;;;21.90;59.20;;;;;;5024030;28;1708;-69
2021/10/09 07:10:00;;;;;;;;;;;21.90;59.20;;;;;;5029486;28;1441;-70
2021/10/09 07:12:26;;;;;;;;;;;21.90;59.40;;;;;;5020906;28;1631;-69
2021/10/09 07:14:51;;;;;;;;;;;21.90;59.50;;;;;;5032223;28;1372;-69
2021/10/09 07:17:17;;;;;;;;;;;21.90;59.50;;;;;;5032573;28;1284;-69
2021/10/09 07:19:42;;;;;;;;;;;21.90;59.60;;;;;;5037085;28;1587;-70
2021/10/09 07:22:08;;;;;;;;;;;21.90;59.70;;;;;;5050034;28;1940;-69
2021/10/09 07:24:33;;;;;;;;;;;21.90;59.70;;;;;;5052331;28;1381;-70
2021/10/09 07:26:58;;;;;;;;;;;21.90;59.80;;;;;;5048965;28;1564;-70
2021/10/09 07:29:24;;;;;;;;;;;21.90;59.90;;;;;;5031736;28;1591;-70
2021/10/09 07:31:49;;;;;;;;;;;21.90;59.90;;;;;;5031522;28;1262;-70
2021/10/09 07:34:15;;;;;;;;;;;21.90;60.00;;;;;;5032380;28;1582;-70
2021/10/09 07:36:40;;;;;;;;;;;21.90;60.20;;;;;;5048275;28;1904;-70
2021/10/09 07:39:06;;;;;;;;;;;21.90;60.20;;;;;;5032910;28;1625;-70
2021/10/09 07:41:31;;;;;;;;;;;21.90;60.30;;;;;;5032385;28;1953;-70
2021/10/09 07:43:56;;;;;;;;;;;21.90;61.10;;;;;;5032805;28;1388;-70
2021/10/09 07:46:22;;;;;;;;;;;21.90;60.50;;;;;;5029659;28;1367;-69
2021/10/09 07:48:47;;;;;;;;;;;21.90;60.60;;;;;;5046038;28;1569;-70
2021/10/09 07:51:13;;;;;;;;;;;21.90;60.70;;;;;;5051437;28;1184;-70
2021/10/09 07:53:38;;;;;;;;;;;21.90;60.80;;;;;;5052359;28;1590;-70
2021/10/09 07:56:03;;;;;;;;;;;21.90;60.80;;;;;;5051852;28;1634;-70
2021/10/09 07:58:29;;;;;;;;;;;21.90;60.90;;;;;;5051853;28;1675;-70
2021/10/09 08:00:54;;;;;;;;;;;21.90;60.90;;;;;;5051533;28;1902;-70
2021/10/09 08:03:24;;;;;;;;;;;21.90;60.90;;;;;;5051769;28;1376;-70
2021/10/09 08:05:51;;;;;;;;;;;21.90;61.00;;;;;;5052318;28;1372;-70
2021/10/09 08:08:16;;;;;;;;;;;21.90;61.10;;;;;;5052081;28;1563;-69
2021/10/09 08:10:42;;;;;;;;;;;21.90;61.20;;;;;;5051698;28;1403;-70
2021/10/09 08:13:07;;;;;;;;;;;21.90;62.00;;;;;;5051884;28;1654;-70
2021/10/09 08:15:33;;;;;;;;;;;21.90;61.30;;;;;;5052190;28;1391;-69
2021/10/09 08:17:58;;;;;;;;;;;21.90;61.30;;;;;;5052317;28;1648;-70
2021/10/09 08:20:24;;;;;;;;;;;21.90;61.40;;;;;;5049693;28;1902;-69
2021/10/09 08:23:05;;;;;;;;;;;21.90;61.60;;;;;;5051829;28;1424;-69
2021/10/09 08:38:55;;;;;;;;;;;21.90;62.00;;;;;;5050548;28;1690;-69
2021/10/09 08:41:21;;;;;;;;;;;21.90;62.10;;;;;;5035617;28;1961;-70
2021/10/09 08:43:51;;;;;;;;;;;21.90;62.10;;;;;;5032997;28;2100;-70
2021/10/09 08:46:16;;;;;;;;;;;21.90;62.20;;;;;;5031135;28;1284;-70
2021/10/09 08:48:45;;;;;;;;;;;21.90;62.30;;;;;;5028787;28;1921;-70
2021/10/09 08:51:11;;;;;;;;;;;21.90;62.40;;;;;;5036029;28;1567;-70
2021/10/09 08:53:37;;;;;;;;;;;21.90;62.30;;;;;;5045258;28;1987;-69
2021/10/09 08:56:03;;;;;;;;;;;21.90;62.40;;;;;;5027679;28;1984;-69
2021/10/09 08:58:33;;;;;;;;;;;21.90;62.40;;;;;;5031388;28;2124;-69
2021/10/09 09:03:53;;;;;;;;;;;21.90;62.50;;;;;;5035405;28;1246;-69
2021/10/09 09:06:27;;;;;;;;;;;21.90;62.50;;;;;;5024747;28;1989;-69
2021/10/09 09:25:46;;;;;;;;;;;21.90;63.00;;;;;;5035648;28;1159;-69
2021/10/09 09:31:14;;;;;;;;;;;22.00;63.10;;;;;;5046615;28;1298;-69
2021/10/09 09:39:05;;;;;;;;;;;22.00;63.10;;;;;;5034401;28;1286;-69
2021/10/09 09:41:42;;;;;;;;;;;22.00;63.10;;;;;;5034239;28;1903;-69
2021/10/09 09:44:14;;;;;;;;;;;22.00;63.10;;;;;;5034654;28;1285;-69
2021/10/09 09:46:40;;;;;;;;;;;22.00;63.10;;;;;;5044621;28;1279;-69
2021/10/09 09:49:05;;;;;;;;;;;22.00;63.10;;;;;;5033174;28;1359;-69
2021/10/09 09:51:35;;;;;;;;;;;22.00;63.90;;;;;;5049086;28;1285;-69
2021/10/09 09:54:00;;;;;;;;;;;22.00;63.10;;;;;;5049385;28;1330;-69
2021/10/09 09:56:25;;;;;;;;;;;22.00;63.10;;;;;;5049840;28;1264;-69
2021/10/09 09:58:52;;;;;;;;;;;22.10;63.20;;;;;;5034331;28;1347;-69
2021/10/09 10:01:17;;;;;;;;;;;22.10;63.20;;;;;;5048533;28;1912;-69
2021/10/09 10:03:43;;;;;;;;;;;22.10;63.20;;;;;;5034111;28;1341;-69
2021/10/09 10:06:08;;;;;;;;;;;22.10;63.20;;;;;;5049367;28;1359;-69
2021/10/09 10:08:34;;;;;;;;;;;22.10;63.20;;;;;;5048907;28;1374;-69
2021/10/09 10:11:00;;;;;;;;;;;22.10;63.40;;;;;;5049074;28;1271;-70
2021/10/09 10:13:28;;;;;;;;;;;22.10;63.30;;;;;;5033652;28;1385;-70
2021/10/09 10:15:54;;;;;;;;;;;22.10;63.40;;;;;;5033685;28;1361;-69
2021/10/09 10:18:38;;;;;;;;;;;22.10;63.30;;;;;;5049258;28;1331;-69
2021/10/09 10:21:03;;;;;;;;;;;22.10;63.30;;;;;;5032984;28;1968;-70
2021/10/09 10:23:30;;;;;;;;;;;22.10;63.40;;;;;;5049110;28;1350;-70
2021/10/09 10:25:56;;;;;;;;;;;22.10;63.40;;;;;;5033719;28;1298;-70
2021/10/09 10:28:22;;;;;;;;;;;22.10;63.40;;;;;;5042429;28;1284;-69
2021/10/09 10:31:03;;;;;;;;;;;22.10;63.50;;;;;;5047995;28;1383;-70
2021/10/09 10:33:47;;;;;;;;;;;22.10;63.40;;;;;;5048644;28;1388;-70
2021/10/09 10:36:32;;;;;;;;;;;22.20;63.60;;;;;;5033465;28;1340;-70
2021/10/09 10:38:58;;;;;;;;;;;22.10;63.50;;;;;;5033307;28;1366;-69
2021/10/09 10:41:37;;;;;;;;;;;22.10;63.60;;;;;;5014808;28;1997;-70
2021/10/09 10:44:04;;;;;;;;;;;22.10;63.60;;;;;;5033467;28;1142;-70
2021/10/09 10:46:34;;;;;;;;;;;22.10;63.80;;;;;;5029500;28;1341;-70
2021/10/09 10:51:45;;;;;;;;;;;22.20;63.90;;;;;;5052669;28;1348;-69
2021/10/09 10:57:03;;;;;;;;;;;22.20;64.00;;;;;;5053281;28;1279;-69
2021/10/09 10:59:29;;;;;;;;;;;22.20;63.90;;;;;;5053300;28;1331;-70
2021/10/09 11:02:13;;;;;;;;;;;22.20;63.90;;;;;;5051569;28;1975;-70
2021/10/09 11:04:41;;;;;;;;;;;22.20;64.00;;;;;;5051689;28;1285;-69
2021/10/09 11:07:06;;;;;;;;;;;22.20;63.90;;;;;;5053021;28;1286;-70
2021/10/09 11:09:33;;;;;;;;;;;22.20;63.90;;;;;;5053095;28;1353;-70
2021/10/09 11:11:59;;;;;;;;;;;22.20;63.90;;;;;;5051126;28;1283;-69
2021/10/09 11:14:27;;;;;;;;;;;22.20;63.90;;;;;;5051310;28;1276;-70
2021/10/09 11:17:02;;;;;;;;;;;22.30;63.90;;;;;;5052651;28;1305;-70
2021/10/09 11:19:47;;;;;;;;;;;22.20;63.90;;;;;;5048027;28;1267;-71
2021/10/09 11:22:13;;;;;;;;;;;22.30;64.00;;;;;;5042724;28;1965;-69
2021/10/09 11:24:48;;;;;;;;;;;22.30;63.90;;;;;;5034534;28;1451;-70
2021/10/09 11:27:14;;;;;;;;;;;22.30;64.00;;;;;;5046418;28;1304;-69
2021/10/09 11:29:40;;;;;;;;;;;22.30;64.00;;;;;;5032316;28;1307;-69
2021/10/09 11:32:06;;;;;;;;;;;22.30;64.00;;;;;;5031377;28;1171;-69
2021/10/09 11:34:46;;;;;;;;;;;22.30;64.00;;;;;;5031166;28;1544;-69
2021/10/09 11:37:14;;;;;;;;;;;22.30;63.90;;;;;;5032174;28;1289;-70
2021/10/09 11:39:47;;;;;;;;;;;22.30;64.00;;;;;;5047701;28;1240;-69
2021/10/09 11:42:14;;;;;;;;;;;22.30;63.90;;;;;;5014289;28;1973;-70
2021/10/09 11:44:44;;;;;;;;;;;22.30;64.00;;;;;;5031907;28;1256;-70
2021/10/09 11:55:29;;;;;;;;;;;22.30;64.10;;;;;;5051820;28;1173;-70
2021/10/09 11:57:55;;;;;;;;;;;22.30;64.10;;;;;;5052053;28;1332;-70
2021/10/09 12:00:29;;;;;;;;;;;22.30;64.20;;;;;;5054279;28;1906;-70
2021/10/09 12:02:58;;;;;;;;;;;22.30;64.10;;;;;;5042943;28;1981;-70
2021/10/09 12:05:26;;;;;;;;;;;22.30;64.30;;;;;;5046289;28;1714;-70
2021/10/09 12:08:25;;;;;;;;;;;22.20;62.20;;;;;;5044293;28;1626;-70
2021/10/09 12:11:10;;;;;;;;;;;22.20;61.10;;;;;;5033585;28;1560;-70
2021/10/09 12:13:45;;;;;;;;;;;22.10;58.50;;;;;;5031745;28;1576;-70
2021/10/09 12:16:10;;;;;;;;;;;22.10;57.40;;;;;;5035441;28;1284;-70
2021/10/09 12:18:45;;;;;;;;;;;22.00;56.40;;;;;;5035658;28;1385;-69
2021/10/09 12:21:10;;;;;;;;;;;22.00;56.80;;;;;;5035240;28;1958;-70
2021/10/09 12:23:35;;;;;;;;;;;21.90;50.70;;;;;;5036163;28;1250;-69
2021/10/09 12:26:11;;;;;;;;;;;21.90;48.30;;;;;;5035692;28;1266;-69
2021/10/09 12:28:56;;;;;;;;;;;21.80;50.10;;;;;;5043388;28;1296;-70
2021/10/09 12:31:28;;;;;;;;;;;21.80;51.50;;;;;;5022105;28;1259;-69
2021/10/09 12:33:53;;;;;;;;;;;21.80;50.20;;;;;;5050756;28;1282;-70
2021/10/09 12:36:38;;;;;;;;;;;21.70;53.80;;;;;;5034069;28;1349;-70
2021/10/09 12:39:23;;;;;;;;;;;21.70;55.00;;;;;;5049493;28;1291;-69
2021/10/09 12:41:49;;;;;;;;;;;21.70;54.00;;;;;;5035587;28;1902;-70
2021/10/09 12:44:14;;;;;;;;;;;21.70;55.00;;;;;;5051062;28;1375;-70
2021/10/09 12:46:40;;;;;;;;;;;21.70;54.60;;;;;;5031008;28;1247;-69
2021/10/09 12:49:05;;;;;;;;;;;21.70;54.20;;;;;;5033318;28;1367;-70
2021/10/09 12:51:30;;;;;;;;;;;21.60;53.50;;;;;;5034843;28;1483;-70
2021/10/09 12:54:02;;;;;;;;;;;21.60;54.00;;;;;;5035644;28;1312;-69
2021/10/09 12:56:28;;;;;;;;;;;21.60;55.20;;;;;;5035583;28;1239;-70
2021/10/09 12:58:53;;;;;;;;;;;21.60;54.20;;;;;;5034507;28;1275;-70
2021/10/09 13:01:19;;;;;;;;;;;21.60;55.00;;;;;;5034911;28;1981;-70
2021/10/09 13:03:44;;;;;;;;;;;21.50;49.90;;;;;;5034548;28;1457;-70
2021/10/09 13:06:09;;;;;;;;;;;21.50;51.70;;;;;;5035499;28;1398;-70
2021/10/09 13:08:35;;;;;;;;;;;21.50;47.00;;;;;;5035056;28;1324;-70
2021/10/09 13:11:00;;;;;;;;;;;21.40;44.90;;;;;;5033969;28;1282;-70
2021/10/09 13:13:26;;;;;;;;;;;21.40;46.40;;;;;;5034665;28;1262;-69
2021/10/09 13:15:51;;;;;;;;;;;21.30;46.80;;;;;;5034798;28;1334;-70
2021/10/09 13:18:17;;;;;;;;;;;21.30;46.60;;;;;;5035113;28;1335;-69
2021/10/09 13:20:42;;;;;;;;;;;21.30;46.40;;;;;;5045484;28;1959;-69
2021/10/09 13:23:07;;;;;;;;;;;21.20;49.00;;;;;;5054651;28;1351;-70
2021/10/09 13:25:33;;;;;;;;;;;21.20;48.80;;;;;;5054468;28;1278;-70
2021/10/09 13:27:58;;;;;;;;;;;21.20;48.30;;;;;;5043789;28;1257;-70
2021/10/09 13:30:24;;;;;;;;;;;21.20;50.40;;;;;;5032536;28;1335;-69
2021/10/09 13:32:49;;;;;;;;;;;21.20;51.80;;;;;;5034683;28;1278;-70
2021/10/09 13:35:15;;;;;;;;;;;21.20;51.30;;;;;;5034817;28;1262;-70
2021/10/09 13:37:47;;;;;;;;;;;21.20;52.30;;;;;;5034287;28;1288;-70
2021/10/09 13:40:12;;;;;;;;;;;21.20;53.10;;;;;;5048791;28;1359;-70
2021/10/09 13:42:37;;;;;;;;;;;21.10;47.00;;;;;;5034147;28;1906;-70
2021/10/09 13:45:03;;;;;;;;;;;21.20;46.80;;;;;;5033465;28;1328;-70
2021/10/09 13:47:28;;;;;;;;;;;21.10;46.50;;;;;;5032297;28;1294;-69
2021/10/09 13:49:54;;;;;;;;;;;21.10;47.40;;;;;;5054020;28;1374;-70
2021/10/09 13:52:19;;;;;;;;;;;21.10;47.10;;;;;;5053965;28;1454;-70
2021/10/09 13:54:45;;;;;;;;;;;21.00;47.00;;;;;;5054580;28;1389;-70
2021/10/09 13:57:10;;;;;;;;;;;21.00;49.40;;;;;;5053703;28;1269;-69
2021/10/09 13:59:37;;;;;;;;;;;21.00;49.70;;;;;;5053410;28;1338;-70
2021/10/09 14:02:02;;;;;;;;;;;21.00;51.30;;;;;;5053164;28;1967;-70
2021/10/09 14:04:28;;;;;;;;;;;21.00;52.10;;;;;;5052786;28;1267;-70
2021/10/09 14:06:53;;;;;;;;;;;21.00;52.80;;;;;;5052672;28;1401;-70
2021/10/09 14:09:19;;;;;;;;;;;21.00;52.70;;;;;;5052057;28;1293;-70
2021/10/09 14:11:44;;;;;;;;;;;21.00;53.10;;;;;;5053249;28;1316;-70
2021/10/09 14:14:10;;;;;;;;;;;21.00;53.00;;;;;;5053355;28;1274;-70
2021/10/09 14:16:35;;;;;;;;;;;21.00;53.30;;;;;;5051987;28;1193;-70
2021/10/09 14:19:01;;;;;;;;;;;21.00;53.50;;;;;;5053471;28;1400;-70
2021/10/09 14:21:26;;;;;;;;;;;21.00;53.50;;;;;;5052879;28;1894;-69
2021/10/09 14:23:52;;;;;;;;;;;21.00;53.90;;;;;;5053031;28;1270;-69
2021/10/09 14:26:17;;;;;;;;;;;21.00;54.10;;;;;;5053099;28;1364;-70
2021/10/09 14:28:42;;;;;;;;;;;21.00;54.00;;;;;;5036853;28;1301;-70
2021/10/09 14:31:08;;;;;;;;;;;21.00;53.70;;;;;;5032924;28;1278;-70
2021/10/09 14:33:34;;;;;;;;;;;21.00;53.70;;;;;;5048825;28;1080;-70
2021/10/09 14:35:59;;;;;;;;;;;21.00;54.00;;;;;;5033656;28;1275;-70
2021/10/09 14:38:25;;;;;;;;;;;21.00;53.80;;;;;;5033844;28;1258;-70
2021/10/09 14:40:50;;;;;;;;;;;21.00;53.70;;;;;;5031976;28;1923;-70
2021/10/09 14:43:16;;;;;;;;;;;21.00;53.30;;;;;;5033437;28;1163;-70
2021/10/09 14:45:42;;;;;;;;;;;21.00;53.10;;;;;;5033309;28;1321;-70
2021/10/09 14:56:17;;;;;;;;;;;20.90;53.80;;;;;;5052553;28;1305;-70
2021/10/09 15:01:48;;;;;;;;;;;20.90;52.30;;;;;;5052527;28;1910;-70
2021/10/09 15:20:25;;;;;;;;;;;20.90;52.60;;;;;;5031471;28;1559;-69
2021/10/09 15:22:51;;;;;;;;;;;20.90;53.50;;;;;;5036761;28;1898;-70
2021/10/09 15:25:16;;;;;;;;;;;20.90;52.30;;;;;;5032441;28;1375;-70
2021/10/09 15:27:42;;;;;;;;;;;20.80;51.20;;;;;;5031357;28;1595;-69
2021/10/09 15:30:07;;;;;;;;;;;20.80;52.00;;;;;;5046217;28;1660;-70
2021/10/09 15:32:33;;;;;;;;;;;20.80;52.90;;;;;;5036748;28;1404;-69
2021/10/09 15:35:00;;;;;;;;;;;20.80;53.20;;;;;;5051742;28;1374;-70
2021/10/09 15:37:25;;;;;;;;;;;20.80;53.30;;;;;;5052792;28;1587;-70
2021/10/09 15:39:50;;;;;;;;;;;20.80;53.70;;;;;;5042232;28;1388;-71
2021/10/09 15:42:16;;;;;;;;;;;20.80;54.00;;;;;;5031450;28;1959;-70
2021/10/09 15:44:42;;;;;;;;;;;20.80;53.80;;;;;;5048052;28;1254;-70
2021/10/09 15:47:07;;;;;;;;;;;20.80;53.20;;;;;;5030081;28;1353;-70
2021/10/09 15:49:33;;;;;;;;;;;20.80;53.50;;;;;;5052710;28;1369;-70
2021/10/09 15:51:58;;;;;;;;;;;20.80;52.80;;;;;;5051776;28;1651;-69
2021/10/09 15:54:23;;;;;;;;;;;20.70;53.10;;;;;;5051406;28;1678;-70
2021/10/09 15:56:49;;;;;;;;;;;20.80;51.40;;;;;;5051057;28;1396;-69
2021/10/09 15:59:14;;;;;;;;;;;20.70;51.70;;;;;;5052487;28;1599;-70
2021/10/09 16:01:40;;;;;;;;;;;20.70;52.70;;;;;;5051770;28;1902;-70
2021/10/09 16:04:05;;;;;;;;;;;20.70;53.10;;;;;;5052421;28;1651;-70
2021/10/09 16:06:31;;;;;;;;;;;20.70;53.50;;;;;;5051275;28;1376;-70
2021/10/09 16:08:56;;;;;;;;;;;20.70;53.90;;;;;;5051936;28;1667;-70
2021/10/09 16:11:21;;;;;;;;;;;20.70;53.90;;;;;;5051804;28;1673;-69
2021/10/09 16:13:47;;;;;;;;;;;20.70;54.10;;;;;;5051861;28;1257;-70
2021/10/09 16:16:12;;;;;;;;;;;20.70;54.50;;;;;;5051901;28;1352;-70
2021/10/09 16:18:38;;;;;;;;;;;20.70;54.50;;;;;;5051181;28;1608;-69
2021/10/09 16:21:03;;;;;;;;;;;20.70;54.80;;;;;;5050353;28;1902;-70
2021/10/09 16:23:29;;;;;;;;;;;20.70;54.80;;;;;;5050615;28;1263;-70
2021/10/09 16:25:54;;;;;;;;;;;20.70;54.90;;;;;;5050990;28;1706;-69
2021/10/09 16:28:20;;;;;;;;;;;20.70;55.10;;;;;;5038296;28;1397;-70
2021/10/09 16:30:48;;;;;;;;;;;20.70;55.30;;;;;;5031464;28;1485;-70
2021/10/09 16:33:13;;;;;;;;;;;20.70;55.50;;;;;;5032203;28;1644;-70
2021/10/09 16:35:39;;;;;;;;;;;20.70;55.70;;;;;;5045724;28;887;-70
2021/10/09 16:38:05;;;;;;;;;;;20.70;55.80;;;;;;5047424;28;1385;-69
2021/10/09 16:40:30;;;;;;;;;;;20.70;55.90;;;;;;5031817;28;1975;-71
2021/10/09 16:42:56;;;;;;;;;;;20.70;56.10;;;;;;5047803;28;1752;-71
2021/10/09 16:45:21;;;;;;;;;;;20.70;56.20;;;;;;5032040;28;1371;-70
2021/10/09 16:47:47;;;;;;;;;;;20.70;56.40;;;;;;5038178;28;1389;-70
2021/10/09 16:50:12;;;;;;;;;;;20.70;56.50;;;;;;5054861;28;1409;-70
2021/10/09 16:52:37;;;;;;;;;;;20.70;56.60;;;;;;5055546;28;1591;-70
2021/10/09 16:55:03;;;;;;;;;;;20.70;56.70;;;;;;5055404;28;1634;-70
2021/10/09 16:57:28;;;;;;;;;;;20.70;56.90;;;;;;5055689;28;1621;-70
2021/10/09 16:59:54;;;;;;;;;;;20.70;56.90;;;;;;5066849;22;2258;-70
2021/10/09 17:02:19;;;;;;;;;;;20.70;57.00;;;;;;5031131;28;2433;-70